Time;durP1;ratioP1;P1;durP2;ratioP2;P2;SDS_P1;SDS_P2;PMS_P1;PMS_P2;Temp;Humidity;BMP_temperature;BMP_pressure;BME280_temperature;BME280_humidity;BME280_pressure;Samples;Min_cycle;Max_cycle;Signal;HPM_P1;HPM_P2
2023/06/09 00:00:33;;;;;;;;;;;;;;;20.73;71.26;96756.85;625900;226;65084;-61
2023/06/09 00:03:00;;;;;;;;;;;;;;;20.73;71.25;96754.19;625912;226;67181;-61
2023/06/09 00:05:31;;;;;;;;;;;;;;;20.73;71.26;96758.73;625912;226;67129;-62
2023/06/09 00:07:57;;;;;;;;;;;;;;;20.74;71.25;96760.34;625860;225;63151;-61
2023/06/09 00:10:24;;;;;;;;;;;;;;;20.73;71.26;96751.51;625978;226;65044;-61
2023/06/09 00:12:52;;;;;;;;;;;;;;;20.73;71.26;96754.19;625516;226;64943;-61
2023/06/09 00:15:20;;;;;;;;;;;;;;;20.74;71.25;96755.00;624701;227;63008;-61
2023/06/09 00:17:48;;;;;;;;;;;;;;;20.73;71.23;96748.84;624629;227;64773;-61
2023/06/09 00:20:15;;;;;;;;;;;;;;;20.74;71.26;96753.13;624800;227;66858;-61
2023/06/09 00:22:43;;;;;;;;;;;;;;;20.73;71.23;96753.39;624837;227;65030;-61
2023/06/09 00:25:12;;;;;;;;;;;;;;;20.73;71.22;96764.86;624758;227;64886;-60
2023/06/09 00:27:45;;;;;;;;;;;;;;;20.74;71.26;96755.00;624737;227;67423;-59
2023/06/09 00:30:16;;;;;;;;;;;;;;;20.72;71.21;96752.59;624797;227;62969;-60
2023/06/09 00:32:43;;;;;;;;;;;;;;;20.74;71.22;96752.33;624767;227;67225;-60
2023/06/09 00:35:12;;;;;;;;;;;;;;;20.74;71.26;96761.14;624788;227;64772;-60
2023/06/09 00:37:40;;;;;;;;;;;;;;;20.73;71.23;96753.39;624831;227;65027;-59
2023/06/09 00:40:08;;;;;;;;;;;;;;;20.73;71.23;96753.39;624741;227;67261;-59
2023/06/09 00:42:36;;;;;;;;;;;;;;;20.74;71.21;96755.00;624812;227;66808;-59
2023/06/09 00:45:04;;;;;;;;;;;;;;;20.74;71.22;96755.00;624822;227;62733;-59
2023/06/09 00:47:31;;;;;;;;;;;;;;;20.73;71.25;96753.39;624834;227;66662;-59
2023/06/09 00:49:59;;;;;;;;;;;;;;;20.73;71.21;96758.73;624839;227;66697;-59
2023/06/09 00:52:27;;;;;;;;;;;;;;;20.73;71.23;96761.40;624756;227;65103;-59
2023/06/09 00:54:55;;;;;;;;;;;;;;;20.74;71.21;96752.33;624789;227;67288;-59
2023/06/09 00:57:23;;;;;;;;;;;;;;;20.73;71.21;96758.73;624799;227;66917;-59
2023/06/09 00:59:51;;;;;;;;;;;;;;;20.73;71.20;96756.85;624803;227;65108;-62
2023/06/09 01:02:19;;;;;;;;;;;;;;;20.73;71.23;96753.39;624847;227;64232;-61
2023/06/09 01:04:49;;;;;;;;;;;;;;;20.73;71.21;96753.39;624754;227;66857;-62
2023/06/09 01:07:24;;;;;;;;;;;;;;;20.73;71.20;96759.52;624754;227;64940;-60
2023/06/09 01:09:51;;;;;;;;;;;;;;;20.74;71.20;96755.00;623766;227;64873;-60
2023/06/09 01:12:21;;;;;;;;;;;;;;;20.73;71.19;96753.39;621326;226;66987;-59
2023/06/09 01:14:50;;;;;;;;;;;;;;;20.73;71.20;96748.05;624779;227;65747;-60
2023/06/09 01:17:18;;;;;;;;;;;;;;;20.72;71.21;96749.13;624765;227;67044;-60
2023/06/09 01:19:50;;;;;;;;;;;;;;;20.72;71.20;96749.92;624775;227;66943;-60
2023/06/09 01:22:19;;;;;;;;;;;;;;;20.73;71.20;96753.39;624769;227;65663;-60
2023/06/09 01:24:48;;;;;;;;;;;;;;;20.73;71.19;96753.39;624384;226;67194;-60
2023/06/09 01:27:18;;;;;;;;;;;;;;;20.72;71.18;96763.28;624729;226;67117;-60
2023/06/09 01:29:45;;;;;;;;;;;;;;;20.73;71.19;96758.73;624807;227;62637;-60
2023/06/09 01:32:15;;;;;;;;;;;;;;;20.73;71.17;96758.73;624766;227;67142;-60
2023/06/09 01:34:43;;;;;;;;;;;;;;;20.73;71.18;96753.39;624809;227;67002;-60
2023/06/09 01:37:12;;;;;;;;;;;;;;;20.72;71.19;96747.26;624773;227;62717;-60
2023/06/09 01:39:40;;;;;;;;;;;;;;;20.72;71.18;96741.91;624778;227;67278;-60
2023/06/09 01:42:08;;;;;;;;;;;;;;;20.72;71.14;96741.13;624752;227;65038;-59
2023/06/09 01:44:36;;;;;;;;;;;;;;;20.72;71.17;96746.46;624800;227;63938;-59
2023/06/09 01:47:03;;;;;;;;;;;;;;;20.72;71.15;96747.26;624789;227;65742;-59
2023/06/09 01:49:47;;;;;;;;;;;;;;;20.72;71.17;96746.46;624774;227;67052;-59
2023/06/09 01:52:29;;;;;;;;;;;;;;;20.73;71.17;96748.05;624631;226;62709;-59
2023/06/09 01:54:58;;;;;;;;;;;;;;;20.72;71.15;96746.46;624754;227;64872;-59
2023/06/09 01:57:33;;;;;;;;;;;;;;;20.73;71.17;96743.50;624783;227;67039;-59
2023/06/09 02:00:03;;;;;;;;;;;;;;;20.72;71.17;96743.80;619141;226;62647;-60
2023/06/09 02:02:34;;;;;;;;;;;;;;;20.72;71.18;96741.13;624624;226;46412;-59
2023/06/09 02:05:04;;;;;;;;;;;;;;;20.72;71.18;96738.45;624754;227;64944;-59
2023/06/09 02:07:31;;;;;;;;;;;;;;;20.71;71.19;96739.53;624709;227;62742;-59
2023/06/09 02:09:59;;;;;;;;;;;;;;;20.71;71.17;96736.87;624767;227;65128;-59
2023/06/09 02:12:32;;;;;;;;;;;;;;;20.71;71.17;96737.66;624767;226;64711;-59
2023/06/09 02:15:00;;;;;;;;;;;;;;;20.72;71.17;96741.13;624815;227;62740;-59
2023/06/09 02:17:28;;;;;;;;;;;;;;;20.72;71.17;96743.80;624780;227;67032;-59
2023/06/09 02:19:56;;;;;;;;;;;;;;;20.72;71.15;96749.13;624738;227;67184;-59
2023/06/09 02:22:23;;;;;;;;;;;;;;;20.71;71.15;96750.22;624520;227;65784;-59
2023/06/09 02:24:53;;;;;;;;;;;;;;;20.71;71.13;96755.56;624925;226;39498;-59
2023/06/09 02:27:21;;;;;;;;;;;;;;;20.72;71.14;96749.92;624862;227;67023;-59
2023/06/09 02:29:48;;;;;;;;;;;;;;;20.72;71.14;96757.14;624794;227;64505;-60
2023/06/09 02:32:16;;;;;;;;;;;;;;;20.71;71.14;96753.68;624799;227;66999;-59
2023/06/09 02:34:45;;;;;;;;;;;;;;;20.71;71.12;96760.90;624769;227;67179;-60
2023/06/09 02:37:13;;;;;;;;;;;;;;;20.71;71.13;96764.36;624809;227;65418;-59
2023/06/09 02:39:42;;;;;;;;;;;;;;;20.71;71.11;96760.90;624880;226;46157;-59
2023/06/09 02:42:09;;;;;;;;;;;;;;;20.71;71.12;96763.56;624835;227;67052;-59
2023/06/09 02:44:37;;;;;;;;;;;;;;;20.71;71.12;96769.70;624783;227;65827;-59
2023/06/09 02:47:05;;;;;;;;;;;;;;;20.71;71.14;96771.58;624783;227;64360;-59
2023/06/09 02:49:33;;;;;;;;;;;;;;;20.71;71.13;96769.70;624751;227;67269;-59
2023/06/09 02:52:02;;;;;;;;;;;;;;;20.72;71.11;96773.17;624667;227;63769;-60
2023/06/09 02:54:31;;;;;;;;;;;;;;;20.71;71.12;96761.69;624831;226;44094;-60
2023/06/09 02:56:59;;;;;;;;;;;;;;;20.72;71.11;96762.48;624764;227;67807;-59
2023/06/09 02:59:27;;;;;;;;;;;;;;;20.71;71.14;96766.23;624774;227;62936;-59
2023/06/09 03:01:55;;;;;;;;;;;;;;;20.71;71.14;96764.36;624767;227;64867;-59
2023/06/09 03:04:23;;;;;;;;;;;;;;;20.70;71.15;96764.63;624815;227;64585;-60
2023/06/09 03:06:53;;;;;;;;;;;;;;;20.71;71.13;96767.03;624856;227;64981;-59
2023/06/09 03:09:21;;;;;;;;;;;;;;;20.72;71.14;96778.50;624781;227;67163;-59
2023/06/09 03:11:50;;;;;;;;;;;;;;;20.71;71.12;96776.92;624778;226;45788;-59
2023/06/09 03:14:18;;;;;;;;;;;;;;;20.71;71.13;96777.72;624778;226;65006;-59
2023/06/09 03:16:45;;;;;;;;;;;;;;;20.71;71.12;96768.91;621251;227;68307;-59
2023/06/09 03:19:13;;;;;;;;;;;;;;;20.70;71.13;96769.96;624839;227;65687;-59
2023/06/09 03:21:43;;;;;;;;;;;;;;;20.70;71.13;96765.41;624777;227;65175;-59
2023/06/09 03:24:11;;;;;;;;;;;;;;;20.71;71.12;96760.90;624749;227;67995;-59
2023/06/09 03:26:40;;;;;;;;;;;;;;;20.71;71.13;96771.58;624690;226;67051;-59
2023/06/09 03:29:08;;;;;;;;;;;;;;;20.71;71.13;96761.69;624801;227;62481;-59
2023/06/09 03:31:36;;;;;;;;;;;;;;;20.70;71.09;96762.75;624807;227;67827;-59
2023/06/09 03:34:04;;;;;;;;;;;;;;;20.71;71.12;96766.23;624815;227;66989;-60
2023/06/09 03:36:36;;;;;;;;;;;;;;;20.70;71.10;96769.96;624785;227;65066;-59
2023/06/09 03:39:02;;;;;;;;;;;;;;;20.70;71.12;96770.76;621138;227;64790;-59
2023/06/09 03:41:29;;;;;;;;;;;;;;;20.70;71.12;96776.09;621283;227;68213;-59
2023/06/09 03:43:57;;;;;;;;;;;;;;;20.70;71.09;96778.77;624768;227;65664;-59
2023/06/09 03:46:25;;;;;;;;;;;;;;;20.70;71.09;96778.77;624820;227;65972;-59
2023/06/09 03:48:53;;;;;;;;;;;;;;;20.70;71.13;96775.30;624814;227;67018;-59
2023/06/09 03:51:21;;;;;;;;;;;;;;;20.71;71.10;96776.92;624775;227;65943;-59
2023/06/09 03:53:48;;;;;;;;;;;;;;;20.70;71.10;96777.97;624746;227;65816;-59
2023/06/09 03:56:16;;;;;;;;;;;;;;;20.70;71.12;96773.42;624793;227;67532;-61
2023/06/09 03:58:45;;;;;;;;;;;;;;;20.71;71.10;96774.25;624832;227;64416;-59
2023/06/09 04:01:17;;;;;;;;;;;;;;;20.70;71.12;96767.30;624767;227;67202;-59
2023/06/09 04:03:42;;;;;;;;;;;;;;;20.70;71.09;96775.30;624755;226;65395;-59
2023/06/09 04:06:10;;;;;;;;;;;;;;;20.70;71.09;96777.97;624735;227;65107;-59
2023/06/09 04:08:38;;;;;;;;;;;;;;;20.71;71.11;96782.27;624804;227;67228;-59
2023/06/09 04:11:05;;;;;;;;;;;;;;;20.69;71.10;96779.85;624588;227;64798;-59
2023/06/09 04:13:33;;;;;;;;;;;;;;;20.71;71.12;96787.60;625361;226;63833;-60
2023/06/09 04:16:01;;;;;;;;;;;;;;;20.69;71.10;96785.19;625854;226;65818;-60
2023/06/09 04:18:31;;;;;;;;;;;;;;;20.70;71.10;96780.64;625916;226;66861;-60
2023/06/09 04:20:58;;;;;;;;;;;;;;;20.70;71.13;96780.64;625899;226;62975;-60
2023/06/09 04:23:27;;;;;;;;;;;;;;;20.70;71.13;96777.97;625919;226;64615;-61
2023/06/09 04:25:55;;;;;;;;;;;;;;;20.70;71.13;96780.64;625898;226;67147;-60
2023/06/09 04:28:24;;;;;;;;;;;;;;;20.69;71.14;96779.85;625941;226;64986;-60
2023/06/09 04:30:53;;;;;;;;;;;;;;;20.70;71.10;96783.31;625933;226;67341;-60
2023/06/09 04:33:21;;;;;;;;;;;;;;;20.69;71.12;96776.39;625864;226;67676;-60
2023/06/09 04:35:53;;;;;;;;;;;;;;;20.69;71.12;96779.85;625886;226;62511;-60
2023/06/09 04:38:20;;;;;;;;;;;;;;;20.70;71.09;96783.31;625313;226;64821;-59
2023/06/09 04:40:48;;;;;;;;;;;;;;;20.69;71.12;96785.19;625799;226;66902;-59
2023/06/09 04:43:16;;;;;;;;;;;;;;;20.70;71.09;96791.33;625897;226;65459;-59
2023/06/09 04:45:44;;;;;;;;;;;;;;;20.69;71.09;96782.52;625879;226;68084;-59
2023/06/09 04:48:13;;;;;;;;;;;;;;;20.69;71.10;96789.73;625871;226;43789;-60
2023/06/09 04:50:44;;;;;;;;;;;;;;;20.69;71.10;96789.73;625954;226;63727;-60
2023/06/09 04:53:10;;;;;;;;;;;;;;;20.70;71.10;96785.98;625882;226;67305;-59
2023/06/09 04:55:40;;;;;;;;;;;;;;;20.69;71.10;96784.40;625915;226;45106;-60
2023/06/09 04:58:11;;;;;;;;;;;;;;;20.69;71.10;96779.06;625901;226;62906;-59
2023/06/09 05:00:39;;;;;;;;;;;;;;;20.70;71.10;96783.31;625893;226;65311;-60
2023/06/09 05:03:07;;;;;;;;;;;;;;;20.69;71.09;96784.40;625967;226;66833;-59
2023/06/09 05:05:34;;;;;;;;;;;;;;;20.69;71.09;96785.19;625970;226;65144;-59
2023/06/09 05:08:04;;;;;;;;;;;;;;;20.70;71.09;96775.30;625930;226;66881;-60
2023/06/09 05:10:32;;;;;;;;;;;;;;;20.69;71.10;96784.40;625916;226;65459;-60
2023/06/09 05:13:01;;;;;;;;;;;;;;;20.69;71.10;96781.73;625665;225;65199;-60
2023/06/09 05:15:30;;;;;;;;;;;;;;;20.68;71.09;96780.94;625884;225;66864;-60
2023/06/09 05:17:57;;;;;;;;;;;;;;;20.69;71.12;96782.52;625993;226;64858;-60
2023/06/09 05:20:25;;;;;;;;;;;;;;;20.69;71.10;96773.72;625817;226;65795;-60
2023/06/09 05:22:53;;;;;;;;;;;;;;;20.68;71.10;96774.77;625922;226;64849;-60
2023/06/09 05:25:20;;;;;;;;;;;;;;;20.68;71.10;96775.59;625849;226;65021;-60
2023/06/09 05:27:48;;;;;;;;;;;;;;;20.68;71.10;96775.59;625944;226;65141;-60
2023/06/09 05:30:16;;;;;;;;;;;;;;;20.68;71.10;96767.58;625899;226;67457;-60
2023/06/09 05:32:47;;;;;;;;;;;;;;;20.69;71.11;96765.70;625808;226;67550;-60
2023/06/09 05:35:14;;;;;;;;;;;;;;;20.68;71.11;96766.77;625901;226;64937;-60
2023/06/09 05:37:49;;;;;;;;;;;;;;;20.67;71.12;96765.97;625871;226;65710;-60
2023/06/09 05:40:18;;;;;;;;;;;;;;;20.69;71.13;96774.52;625901;226;67037;-60
2023/06/09 05:42:45;;;;;;;;;;;;;;;20.68;71.15;96761.42;625968;226;65074;-61
2023/06/09 05:45:13;;;;;;;;;;;;;;;20.69;71.15;96757.70;625848;226;66850;-60
2023/06/09 05:47:40;;;;;;;;;;;;;;;20.68;71.13;96764.09;625905;226;67098;-62
2023/06/09 05:50:08;;;;;;;;;;;;;;;20.68;71.12;96764.09;625884;226;65026;-63
2023/06/09 05:52:35;;;;;;;;;;;;;;;20.68;71.16;96764.91;625749;226;67332;-63
2023/06/09 05:55:03;;;;;;;;;;;;;;;20.67;71.13;96760.63;625962;226;66999;-64
2023/06/09 05:57:32;;;;;;;;;;;;;;;20.68;71.15;96769.43;619495;226;65120;-62
2023/06/09 06:00:00;;;;;;;;;;;;;;;20.68;71.18;96766.77;618555;229;64427;-62
2023/06/09 06:02:27;;;;;;;;;;;;;;;20.68;71.17;96767.58;618788;229;64933;-63
2023/06/09 06:04:55;;;;;;;;;;;;;;;20.68;71.14;96764.91;618815;229;63085;-63
2023/06/09 06:07:22;;;;;;;;;;;;;;;20.67;71.17;96765.97;618850;229;64952;-62
2023/06/09 06:09:50;;;;;;;;;;;;;;;20.68;71.21;96761.42;618821;229;64803;-62
2023/06/09 06:12:18;;;;;;;;;;;;;;;20.65;71.43;96757.42;618718;229;62972;-62
2023/06/09 06:14:45;;;;;;;;;;;;;;;20.68;71.57;96758.75;617685;229;66977;-62
2023/06/09 06:17:12;;;;;;;;;;;;;;;20.68;71.73;96761.42;617698;229;67029;-63
2023/06/09 06:19:40;;;;;;;;;;;;;;;20.69;71.73;96757.70;617714;228;62970;-63
2023/06/09 06:22:08;;;;;;;;;;;;;;;20.71;71.84;96759.02;617698;229;67161;-64
2023/06/09 06:24:36;;;;;;;;;;;;;;;20.70;71.51;96754.73;617683;229;67250;-64
2023/06/09 06:27:07;;;;;;;;;;;;;;;20.72;71.78;96754.47;617684;229;62811;-63
2023/06/09 06:29:39;;;;;;;;;;;;;;;20.71;71.69;96758.23;617766;229;46858;-61
2023/06/09 06:32:07;;;;;;;;;;;;;;;20.72;71.53;96762.48;617685;229;66907;-61
2023/06/09 06:34:34;;;;;;;;;;;;;;;20.71;71.52;96755.56;617740;229;65032;-61
2023/06/09 06:37:02;;;;;;;;;;;;;;;20.72;71.67;96762.48;617694;229;67216;-61
2023/06/09 06:39:29;;;;;;;;;;;;;;;20.72;71.78;96757.14;617669;229;67465;-61
2023/06/09 06:41:57;;;;;;;;;;;;;;;20.73;71.90;96758.73;617684;229;65043;-61
2023/06/09 06:44:26;;;;;;;;;;;;;;;20.72;71.99;96752.59;617710;229;43153;-62
2023/06/09 06:46:53;;;;;;;;;;;;;;;20.73;72.06;96753.39;617737;229;67065;-61
2023/06/09 06:49:21;;;;;;;;;;;;;;;20.74;72.20;96757.67;617018;229;65086;-62
2023/06/09 06:51:50;;;;;;;;;;;;;;;20.73;72.01;96759.52;617668;227;67211;-61
2023/06/09 06:54:17;;;;;;;;;;;;;;;20.73;72.17;96759.52;617642;229;67063;-61
2023/06/09 06:56:45;;;;;;;;;;;;;;;20.74;72.13;96753.13;617585;229;62862;-61
2023/06/09 06:59:12;;;;;;;;;;;;;;;20.74;72.14;96755.80;618871;227;66866;-60
2023/06/09 07:01:40;;;;;;;;;;;;;;;20.74;72.16;96758.47;622996;227;65058;-60
2023/06/09 07:04:08;;;;;;;;;;;;;;;20.66;72.20;96747.57;622304;227;62971;-60
2023/06/09 07:06:35;;;;;;;;;;;;;;;20.76;72.15;96755.50;620490;227;65216;-60
2023/06/09 07:09:03;;;;;;;;;;;;;;;20.76;72.16;96755.50;620255;227;67070;-60
2023/06/09 07:11:32;;;;;;;;;;;;;;;20.76;72.16;96753.66;623113;227;65042;-63
2023/06/09 07:14:00;;;;;;;;;;;;;;;20.76;72.18;96747.49;624702;226;67213;-60
2023/06/09 07:16:29;;;;;;;;;;;;;;;20.76;72.11;96748.31;624731;227;67135;-62
2023/06/09 07:18:56;;;;;;;;;;;;;;;20.76;72.13;96753.66;624697;227;64893;-62
2023/06/09 07:21:23;;;;;;;;;;;;;;;20.76;72.21;96747.49;624671;227;64971;-61
2023/06/09 07:23:51;;;;;;;;;;;;;;;20.76;72.19;96748.31;624813;227;64940;-60
2023/06/09 07:26:18;;;;;;;;;;;;;;;20.76;72.25;96742.97;624658;227;64810;-64
2023/06/09 07:28:46;;;;;;;;;;;;;;;20.76;72.28;96737.63;624657;227;67260;-63
2023/06/09 07:31:15;;;;;;;;;;;;;;;20.78;72.15;96742.69;624728;227;64912;-64
2023/06/09 07:33:44;;;;;;;;;;;;;;;20.78;72.10;96746.15;624690;227;65167;-63
2023/06/09 07:36:11;;;;;;;;;;;;;;;20.77;72.24;96744.56;624744;227;64966;-64
2023/06/09 07:38:39;;;;;;;;;;;;;;;20.78;72.19;96748.02;624651;227;67199;-64
2023/06/09 07:41:06;;;;;;;;;;;;;;;20.78;72.29;96746.15;624648;227;64846;-63
2023/06/09 07:43:34;;;;;;;;;;;;;;;20.77;72.25;96744.56;624738;227;65812;-61
2023/06/09 07:46:01;;;;;;;;;;;;;;;20.77;72.20;96739.22;624692;227;64663;-62
2023/06/09 07:48:29;;;;;;;;;;;;;;;20.77;72.26;96735.76;624541;227;62795;-60
2023/06/09 07:50:57;;;;;;;;;;;;;;;20.78;72.17;96734.67;624723;227;67245;-60
2023/06/09 07:53:25;;;;;;;;;;;;;;;20.78;72.26;96735.47;624573;227;67173;-60
2023/06/09 07:55:52;;;;;;;;;;;;;;;20.78;72.15;96734.67;624660;227;62929;-62
2023/06/09 07:58:20;;;;;;;;;;;;;;;20.79;72.08;96731.73;624691;227;64959;-61
2023/06/09 08:00:48;;;;;;;;;;;;;;;20.80;71.76;96732.53;624657;227;65041;-62
2023/06/09 08:03:15;;;;;;;;;;;;;;;20.80;70.64;96733.33;624731;227;65054;-62
2023/06/09 08:05:43;;;;;;;;;;;;;;;20.80;71.28;96733.33;624670;227;67067;-61
2023/06/09 08:08:10;;;;;;;;;;;;;;;20.81;67.84;96734.12;624691;227;66920;-61
2023/06/09 08:10:38;;;;;;;;;;;;;;;20.83;71.17;96737.31;624716;227;64963;-61
2023/06/09 08:13:05;;;;;;;;;;;;;;;20.83;71.96;96737.31;624712;226;66924;-61
2023/06/09 08:15:33;;;;;;;;;;;;;;;20.81;71.97;96734.91;624743;227;67111;-61
2023/06/09 08:18:00;;;;;;;;;;;;;;;20.82;72.00;96730.39;624687;227;66151;-61
2023/06/09 08:20:29;;;;;;;;;;;;;;;20.82;69.94;96730.39;624474;226;67438;-62
2023/06/09 08:22:57;;;;;;;;;;;;;;;20.82;70.01;96730.39;624686;227;67009;-61
2023/06/09 08:25:26;;;;;;;;;;;;;;;20.83;71.84;96731.98;624520;226;45990;-60
2023/06/09 08:27:54;;;;;;;;;;;;;;;20.82;71.88;96731.19;624702;227;64830;-60
2023/06/09 08:30:23;;;;;;;;;;;;;;;20.81;72.07;96734.91;624690;227;67015;-60
2023/06/09 08:32:51;;;;;;;;;;;;;;;20.82;72.01;96733.06;624617;227;62938;-61
2023/06/09 08:35:18;;;;;;;;;;;;;;;20.81;72.01;96729.56;624755;227;67204;-61
2023/06/09 08:37:46;;;;;;;;;;;;;;;20.81;71.98;96732.23;624678;227;67061;-62
2023/06/09 08:40:14;;;;;;;;;;;;;;;20.82;71.98;96736.52;624665;227;62772;-61
2023/06/09 08:42:43;;;;;;;;;;;;;;;20.81;72.00;96729.56;624708;227;67217;-62
2023/06/09 08:45:10;;;;;;;;;;;;;;;20.82;71.98;96730.39;624712;227;67138;-60
2023/06/09 08:47:38;;;;;;;;;;;;;;;20.80;72.04;96711.95;624689;227;64871;-60
2023/06/09 08:50:09;;;;;;;;;;;;;;;20.81;71.92;96718.09;624533;227;64447;-60
2023/06/09 08:52:37;;;;;;;;;;;;;;;20.82;71.90;96711.69;624646;227;67100;-60
2023/06/09 08:55:05;;;;;;;;;;;;;;;20.82;71.95;96711.69;624775;227;65135;-61
2023/06/09 08:57:33;;;;;;;;;;;;;;;20.82;71.96;96709.02;624637;227;67232;-62
2023/06/09 09:00:03;;;;;;;;;;;;;;;20.82;72.01;96711.69;624723;227;66555;-61
2023/06/09 09:02:29;;;;;;;;;;;;;;;20.82;72.06;96711.69;624716;226;64986;-61
2023/06/09 09:05:00;;;;;;;;;;;;;;;20.82;72.04;96706.35;624697;227;66717;-60
2023/06/09 09:07:26;;;;;;;;;;;;;;;20.82;71.98;96722.38;624652;226;67249;-59
2023/06/09 09:09:54;;;;;;;;;;;;;;;20.83;72.07;96721.30;624788;227;65015;-60
2023/06/09 09:12:22;;;;;;;;;;;;;;;20.83;72.05;96721.30;624562;226;66935;-60
2023/06/09 09:14:50;;;;;;;;;;;;;;;20.83;72.09;96721.30;624702;227;66871;-60
2023/06/09 09:17:20;;;;;;;;;;;;;;;20.83;72.04;96716.74;624697;227;65044;-60
2023/06/09 09:19:51;;;;;;;;;;;;;;;20.83;72.08;96714.07;624638;227;66975;-61
2023/06/09 09:22:19;;;;;;;;;;;;;;;20.83;72.07;96716.74;624766;227;67207;-61
2023/06/09 09:24:49;;;;;;;;;;;;;;;20.83;72.03;96716.74;624705;227;65264;-60
2023/06/09 09:27:21;;;;;;;;;;;;;;;20.84;72.05;96712.19;624665;227;66887;-60
2023/06/09 09:29:49;;;;;;;;;;;;;;;20.83;72.05;96710.61;624657;227;67881;-61
2023/06/09 09:32:17;;;;;;;;;;;;;;;20.84;72.03;96714.86;624669;227;63826;-60
2023/06/09 09:34:47;;;;;;;;;;;;;;;20.83;72.05;96700.72;624634;227;65245;-61
2023/06/09 09:37:16;;;;;;;;;;;;;;;20.83;72.04;96706.06;624753;227;67105;-60
2023/06/09 09:39:50;;;;;;;;;;;;;;;20.83;72.04;96702.59;624700;227;62716;-61
2023/06/09 09:42:18;;;;;;;;;;;;;;;20.84;72.01;96698.84;624666;227;65115;-60
2023/06/09 09:44:47;;;;;;;;;;;;;;;20.83;72.02;96705.27;624668;227;64943;-60
2023/06/09 09:47:17;;;;;;;;;;;;;;;20.84;72.04;96704.18;624607;227;65096;-61
2023/06/09 09:49:48;;;;;;;;;;;;;;;20.84;72.02;96706.85;624712;227;67201;-61
2023/06/09 09:52:17;;;;;;;;;;;;;;;20.84;72.12;96699.66;624531;226;64893;-60
2023/06/09 09:54:45;;;;;;;;;;;;;;;20.84;72.04;96705.00;624403;226;62908;-61
2023/06/09 09:57:13;;;;;;;;;;;;;;;20.84;72.00;96706.85;620389;227;64968;-60
2023/06/09 09:59:40;;;;;;;;;;;;;;;20.84;72.02;96706.85;618563;227;65039;-60
2023/06/09 10:02:09;;;;;;;;;;;;;;;20.83;71.98;96711.40;617371;229;62959;-60
2023/06/09 10:04:37;;;;;;;;;;;;;;;20.85;71.93;96697.78;617525;228;64853;-60
2023/06/09 10:07:05;;;;;;;;;;;;;;;20.85;71.95;96708.47;617495;229;67089;-60
2023/06/09 10:09:33;;;;;;;;;;;;;;;20.84;71.94;96713.02;617440;229;65081;-60
2023/06/09 10:12:00;;;;;;;;;;;;;;;20.84;71.94;96701.51;617513;229;64699;-60
2023/06/09 10:14:29;;;;;;;;;;;;;;;20.85;71.97;96703.13;617594;229;64409;-61
2023/06/09 10:16:57;;;;;;;;;;;;;;;20.85;71.99;96697.78;616891;229;65028;-60
2023/06/09 10:19:25;;;;;;;;;;;;;;;20.85;71.93;96692.44;616771;229;66905;-60
2023/06/09 10:21:53;;;;;;;;;;;;;;;20.85;71.87;96700.45;617592;229;67155;-60
2023/06/09 10:24:21;;;;;;;;;;;;;;;20.86;71.91;96693.23;617592;229;65025;-61
2023/06/09 10:26:49;;;;;;;;;;;;;;;20.86;71.91;96687.89;617600;229;66957;-60
2023/06/09 10:29:17;;;;;;;;;;;;;;;20.86;71.92;96687.89;617685;229;64813;-60
2023/06/09 10:31:46;;;;;;;;;;;;;;;20.86;71.87;96687.89;617541;229;65072;-61
2023/06/09 10:34:15;;;;;;;;;;;;;;;20.86;71.90;96683.34;617629;229;66931;-61
2023/06/09 10:36:45;;;;;;;;;;;;;;;20.86;71.92;96675.33;617605;229;66888;-61
2023/06/09 10:39:17;;;;;;;;;;;;;;;20.86;71.93;96674.53;617584;229;65022;-61
2023/06/09 10:41:45;;;;;;;;;;;;;;;20.86;71.92;96669.20;617726;229;66805;-61
2023/06/09 10:44:17;;;;;;;;;;;;;;;20.86;71.92;96678.00;617605;228;67014;-60
2023/06/09 10:46:46;;;;;;;;;;;;;;;20.86;71.92;96678.00;617591;229;62974;-59
2023/06/09 10:49:46;;;;;;;;;;;;;;;20.87;71.93;96668.11;617684;229;64860;-59
2023/06/09 10:51:59;;;;;;;;;;;;;;;20.87;71.97;96673.45;616034;228;64242;-59
2023/06/09 10:54:27;;;;;;;;;;;;;;;20.87;71.93;96673.45;617646;229;62864;-59
2023/06/09 10:56:57;;;;;;;;;;;;;;;20.87;71.98;96663.59;617660;229;66870;-59
2023/06/09 10:59:26;;;;;;;;;;;;;;;20.87;71.94;96668.11;617625;229;64713;-59
2023/06/09 11:02:12;;;;;;;;;;;;;;;20.87;71.92;96666.27;617598;229;63801;-59
2023/06/09 11:04:43;;;;;;;;;;;;;;;20.88;71.88;96675.86;617409;228;66848;-60
2023/06/09 11:07:16;;;;;;;;;;;;;;;20.86;71.91;96669.98;617586;229;66844;-59
2023/06/09 11:09:42;;;;;;;;;;;;;;;20.87;71.93;96671.60;617468;227;62852;-59
2023/06/09 11:12:13;;;;;;;;;;;;;;;20.88;71.92;96670.52;617094;229;65570;-59
2023/06/09 11:14:48;;;;;;;;;;;;;;;20.89;71.91;96671.31;619421;228;66939;-59
2023/06/09 11:17:16;;;;;;;;;;;;;;;20.88;71.93;96667.84;619630;229;62886;-61
2023/06/09 11:19:44;;;;;;;;;;;;;;;20.88;71.93;96678.53;619541;229;66812;-59
2023/06/09 11:22:13;;;;;;;;;;;;;;;20.89;71.95;96673.98;619528;228;66936;-59
2023/06/09 11:24:50;;;;;;;;;;;;;;;20.88;71.93;96670.52;619651;229;63016;-59
2023/06/09 11:27:18;;;;;;;;;;;;;;;20.89;71.92;96674.77;619603;229;64639;-59
2023/06/09 11:29:47;;;;;;;;;;;;;;;20.89;71.86;96669.43;619626;229;64482;-59
2023/06/09 11:32:19;;;;;;;;;;;;;;;20.90;71.89;96675.56;618104;229;63812;-59
2023/06/09 11:34:51;;;;;;;;;;;;;;;20.89;71.86;96666.75;615968;229;66163;-59
2023/06/09 11:37:20;;;;;;;;;;;;;;;20.89;71.85;96664.09;615904;229;67180;-59
2023/06/09 11:39:48;;;;;;;;;;;;;;;20.89;71.83;96656.07;619554;229;62955;-60
2023/06/09 11:42:17;;;;;;;;;;;;;;;20.91;70.73;96653.92;619509;228;64756;-59
2023/06/09 11:44:45;;;;;;;;;;;;;;;20.93;71.31;96657.13;616161;229;64746;-59
2023/06/09 11:47:25;;;;;;;;;;;;;;;20.92;71.68;96646.70;619609;229;63092;-59
2023/06/09 11:50:04;;;;;;;;;;;;;;;20.91;71.82;96653.92;619491;229;66853;-59
2023/06/09 11:52:33;;;;;;;;;;;;;;;20.93;71.32;96656.33;619593;229;66846;-60
2023/06/09 11:55:02;;;;;;;;;;;;;;;20.92;71.54;96652.84;619543;228;62986;-60
2023/06/09 11:57:31;;;;;;;;;;;;;;;20.92;71.73;96647.50;619513;229;66787;-61
2023/06/09 11:59:59;;;;;;;;;;;;;;;20.91;71.76;96640.57;619609;229;64865;-61
2023/06/09 12:02:27;;;;;;;;;;;;;;;20.91;71.70;96637.91;619471;229;65188;-61
2023/06/09 12:04:55;;;;;;;;;;;;;;;20.91;71.63;96643.24;619468;227;67116;-61
2023/06/09 12:07:25;;;;;;;;;;;;;;;20.91;71.58;96643.24;619523;229;66850;-61
2023/06/09 12:09:56;;;;;;;;;;;;;;;20.92;71.57;96634.14;619564;229;65163;-61
2023/06/09 12:12:24;;;;;;;;;;;;;;;20.92;71.58;96639.48;619318;229;64734;-61
2023/06/09 12:14:52;;;;;;;;;;;;;;;20.92;71.51;96636.81;617612;229;66776;-61
2023/06/09 12:17:19;;;;;;;;;;;;;;;20.93;71.47;96640.31;617615;229;64994;-60
2023/06/09 12:19:48;;;;;;;;;;;;;;;20.93;71.43;96643.77;617638;229;66907;-60
2023/06/09 12:22:17;;;;;;;;;;;;;;;20.94;71.36;96644.56;617696;229;66897;-61
2023/06/09 12:24:45;;;;;;;;;;;;;;;20.92;71.40;96631.47;619540;227;62914;-61
2023/06/09 12:27:13;;;;;;;;;;;;;;;20.94;71.41;96633.88;624686;227;68064;-60
2023/06/09 12:29:41;;;;;;;;;;;;;;;20.94;71.41;96636.55;624750;227;66824;-60
2023/06/09 12:32:09;;;;;;;;;;;;;;;20.94;71.42;96632.00;624706;227;62921;-60
2023/06/09 12:34:37;;;;;;;;;;;;;;;20.95;71.42;96622.92;624708;227;66804;-61
2023/06/09 12:37:06;;;;;;;;;;;;;;;20.95;71.46;96633.61;624723;227;64789;-60
2023/06/09 12:39:35;;;;;;;;;;;;;;;20.96;71.50;96632.52;624666;227;65071;-61
2023/06/09 12:42:11;;;;;;;;;;;;;;;20.95;71.56;96625.59;624810;226;46541;-61
2023/06/09 12:44:38;;;;;;;;;;;;;;;20.95;71.53;96628.27;624771;227;64604;-60
2023/06/09 12:47:08;;;;;;;;;;;;;;;20.96;71.45;96627.18;624659;227;63018;-60
2023/06/09 12:49:35;;;;;;;;;;;;;;;20.96;71.44;96623.72;624301;226;67587;-60
2023/06/09 12:52:03;;;;;;;;;;;;;;;20.95;71.42;96633.61;624745;227;67060;-61
2023/06/09 12:54:32;;;;;;;;;;;;;;;20.96;71.38;96624.51;624403;226;44605;-60